Terminal Aerodrome Forecast
Issued by NWS

Home | Current Version | Previous Version | Text Only | Print | Product List | Glossary On
Versions: 1 2 3 4 5 6 7 8 9 10 11 12 13 14 15 16 17
000
FTUS41 KBTV 221400 AAA
TAFSLK
TAF AMD
KSLK 221446Z 2215/2312 28012G20KT P6SM BKN012 OVC020
     FM222100 27007KT P6SM OVC025
     FM230600 24004KT P6SM BKN025=

USA.gov is the U.S. government's official web portal to all federal, state and local government web resources and services.